Time;durP1;ratioP1;P1;durP2;ratioP2;P2;SDS_P1;SDS_P2;PMS_P1;PMS_P2;Temp;Humidity;BMP_temperature;BMP_pressure;BME280_temperature;BME280_humidity;BME280_pressure;Samples;Min_cycle;Max_cycle;Signal;HPM_P1;HPM_P2
2021/12/24 00:01:50;;;;;;;48.20;21.17;;;5.40;99.90;;;;;;5008635;28;20057;-79
2021/12/24 00:04:15;;;;;;;43.53;19.60;;;5.40;99.90;;;;;;4994184;28;20496;-79
2021/12/24 00:06:41;;;;;;;55.88;22.27;;;5.40;99.90;;;;;;4994188;28;20053;-78
2021/12/24 00:09:07;;;;;;;51.38;20.90;;;5.40;99.90;;;;;;5000229;28;20046;-79
2021/12/24 00:11:34;;;;;;;46.75;20.45;;;5.40;99.90;;;;;;5023258;28;20038;-79
2021/12/24 00:14:02;;;;;;;47.75;19.00;;;5.40;99.90;;;;;;5004839;28;20559;-78
2021/12/24 00:16:51;;;;;;;49.92;20.85;;;5.50;99.90;;;;;;5010207;28;20038;-80
2021/12/24 00:22:30;;;;;;;41.47;19.20;;;5.50;99.90;;;;;;5010479;28;20392;-79
2021/12/24 00:35:34;;;;;;;40.63;17.52;;;5.70;99.90;;;;;;5008956;28;20069;-79
2021/12/24 00:38:05;;;;;;;35.38;15.77;;;5.70;99.90;;;;;;5010178;28;20084;-79
2021/12/24 00:40:34;;;;;;;44.53;17.10;;;5.70;99.90;;;;;;5009271;28;20038;-78
2021/12/24 00:43:00;;;;;;;40.67;16.38;;;5.70;99.90;;;;;;5002251;28;20129;-79
2021/12/24 00:45:33;;;;;;;36.88;16.42;;;5.70;99.90;;;;;;5009093;28;20042;-79
2021/12/24 00:48:00;;;;;;;40.55;16.63;;;5.70;99.90;;;;;;5009128;28;20045;-79
2021/12/24 00:50:45;;;;;;;30.38;14.55;;;5.70;99.90;;;;;;5002269;28;20053;-78
2021/12/24 00:55:55;;;;;;;34.75;14.70;;;5.70;99.90;;;;;;5008198;28;20107;-79
2021/12/24 00:58:21;;;;;;;35.05;15.05;;;5.80;99.90;;;;;;4998689;28;20038;-79
2021/12/24 01:00:46;;;;;;;34.40;15.13;;;5.80;99.90;;;;;;5011846;28;20042;-79
2021/12/24 01:03:12;;;;;;;35.55;15.63;;;5.80;99.90;;;;;;5000125;28;20040;-79
2021/12/24 01:05:39;;;;;;;38.38;15.10;;;5.90;99.90;;;;;;5013440;28;20061;-78
2021/12/24 01:08:05;;;;;;;33.13;13.73;;;5.90;99.90;;;;;;5008573;28;20456;-79
2021/12/24 01:10:38;;;;;;;35.58;14.23;;;6.10;99.90;;;;;;5004191;28;20038;-79
2021/12/24 01:13:05;;;;;;;36.00;13.65;;;6.00;99.90;;;;;;5012295;28;20046;-78
2021/12/24 01:15:32;;;;;;;27.15;12.80;;;6.00;99.90;;;;;;5012887;28;20041;-78
2021/12/24 01:20:39;;;;;;;25.98;12.13;;;6.00;99.90;;;;;;5009830;28;20149;-79
2021/12/24 01:26:02;;;;;;;29.95;12.25;;;6.10;99.90;;;;;;5012143;28;20145;-78
2021/12/24 01:39:15;;;;;;;;;;;6.20;99.90;;;;;;5003875;28;20108;-78
2021/12/24 01:44:28;;;;;;;23.48;10.45;;;6.30;99.90;;;;;;4999943;28;20097;-78
2021/12/24 01:46:58;;;;;;;19.88;9.60;;;6.30;99.90;;;;;;5006612;28;20073;-78
2021/12/24 01:49:24;;;;;;;18.65;9.80;;;6.30;99.90;;;;;;5005139;28;20084;-78
2021/12/24 01:51:51;;;;;;;24.05;10.35;;;6.30;99.90;;;;;;5011405;28;20065;-78
2021/12/24 01:54:17;;;;;;;24.80;10.50;;;6.30;99.90;;;;;;5009672;28;20522;-78
2021/12/24 01:56:44;;;;;;;20.77;9.80;;;6.40;99.90;;;;;;5010943;28;20038;-78
2021/12/24 01:59:09;;;;;;;22.80;10.52;;;6.40;99.90;;;;;;5011915;28;20076;-77
2021/12/24 02:01:35;;;;;;;20.88;9.32;;;6.40;99.90;;;;;;5007793;28;20058;-78
2021/12/24 02:04:01;;;;;;;20.30;9.35;;;6.40;99.90;;;;;;4985641;28;20043;-77
2021/12/24 02:06:27;;;;;;;22.85;9.95;;;6.50;99.90;;;;;;5011895;28;20038;-78
2021/12/24 02:08:52;;;;;;;20.83;9.57;;;6.50;99.90;;;;;;5012022;28;20053;-78
2021/12/24 02:11:18;;;;;;;23.38;10.07;;;6.50;99.90;;;;;;5011457;28;20056;-78
2021/12/24 02:13:44;;;;;;;19.73;9.57;;;6.50;99.90;;;;;;5011925;28;20193;-78
2021/12/24 02:16:44;;;;;;;22.23;9.43;;;6.50;99.90;;;;;;5011414;28;20535;-78
2021/12/24 02:29:57;;;;;;;26.05;10.35;;;6.60;99.90;;;;;;5011830;28;20048;-79
2021/12/24 02:32:22;;;;;;;28.55;11.43;;;6.50;99.90;;;;;;5011056;28;20414;-78
2021/12/24 02:34:49;;;;;;;23.63;10.55;;;6.60;99.90;;;;;;5011805;28;20056;-79
2021/12/24 02:37:14;;;;;;;25.65;11.25;;;6.60;99.90;;;;;;5004889;28;20654;-79
2021/12/24 02:39:40;;;;;;;25.70;11.48;;;6.80;99.90;;;;;;4995301;28;20038;-78
2021/12/24 02:42:15;;;;;;;24.45;10.77;;;6.70;99.90;;;;;;5011418;28;20030;-78
2021/12/24 02:44:41;;;;;;;23.33;11.32;;;6.70;99.90;;;;;;5010896;28;20046;-78
2021/12/24 02:55:10;;;;;;;29.65;11.63;;;6.80;99.90;;;;;;4997963;28;20111;-79
2021/12/24 02:57:38;;;;;;;25.25;10.55;;;6.80;99.90;;;;;;5007975;28;20119;-79
2021/12/24 03:00:19;;;;;;;27.98;10.73;;;6.80;99.90;;;;;;5006338;28;20046;-79
2021/12/24 03:02:47;;;;;;;29.60;11.77;;;6.90;99.90;;;;;;4999764;28;20060;-78
2021/12/24 03:05:15;;;;;;;31.85;12.50;;;6.90;99.90;;;;;;5010755;28;20116;-78
2021/12/24 03:07:42;;;;;;;34.13;11.88;;;6.90;99.90;;;;;;5009599;28;20761;-79
2021/12/24 03:10:15;;;;;;;29.80;11.68;;;6.90;99.90;;;;;;5009890;28;20038;-78
2021/12/24 03:12:44;;;;;;;29.65;12.13;;;6.90;99.90;;;;;;5004995;28;20037;-79
2021/12/24 03:15:11;;;;;;;34.50;12.35;;;7.00;99.90;;;;;;5008495;28;20545;-79
2021/12/24 03:17:37;;;;;;;32.33;12.45;;;7.00;99.90;;;;;;5009078;28;20038;-78
2021/12/24 03:20:09;;;;;;;33.50;12.60;;;7.00;99.90;;;;;;5009433;28;20581;-78
2021/12/24 03:25:07;;;;;;;35.15;13.55;;;7.10;99.90;;;;;;5009604;28;20042;-78
2021/12/24 03:27:33;;;;;;;54.55;14.93;;;7.10;99.90;;;;;;5010099;28;20048;-79
2021/12/24 03:29:58;;;;;;;54.83;15.73;;;7.10;99.90;;;;;;4990024;28;20034;-79
2021/12/24 03:32:25;;;;;;;55.47;16.08;;;7.20;99.90;;;;;;4990199;28;20081;-78
2021/12/24 03:34:52;;;;;;;64.38;16.98;;;7.10;99.90;;;;;;5010249;28;20175;-79
2021/12/24 03:37:18;;;;;;;59.03;15.57;;;7.20;99.90;;;;;;4994321;28;20131;-79
2021/12/24 03:39:43;;;;;;;65.60;16.23;;;7.30;99.90;;;;;;4991523;28;20046;-79
2021/12/24 03:42:09;;;;;;;64.53;17.33;;;7.30;99.90;;;;;;5009070;28;20403;-79
2021/12/24 03:44:37;;;;;;;64.57;16.48;;;7.30;99.90;;;;;;5010225;28;20392;-76
2021/12/24 03:47:10;;;;;;;79.47;18.10;;;7.30;99.90;;;;;;5010468;28;20029;-76
2021/12/24 03:49:40;;;;;;;59.50;16.15;;;7.40;99.90;;;;;;5010805;28;20108;-76
2021/12/24 03:54:58;;;;;;;60.15;18.85;;;7.50;99.90;;;;;;4990595;28;20058;-76
2021/12/24 03:57:26;;;;;;;72.85;18.63;;;7.60;99.90;;;;;;5002766;28;20515;-76
2021/12/24 03:59:54;;;;;;;77.22;19.30;;;7.60;99.90;;;;;;4996136;28;20404;-77
2021/12/24 04:02:20;;;;;;;73.65;18.60;;;7.60;99.90;;;;;;5005366;28;20037;-77
2021/12/24 04:04:46;;;;;;;76.07;19.92;;;7.70;99.90;;;;;;5002226;28;20044;-76
2021/12/24 04:07:12;;;;;;;85.93;20.15;;;7.80;99.90;;;;;;5008716;28;20030;-76
2021/12/24 04:09:43;;;;;;;87.03;19.45;;;7.90;99.90;;;;;;5008633;28;20579;-76
2021/12/24 04:12:08;;;;;;;78.40;19.05;;;7.80;99.90;;;;;;5003467;28;20038;-76
2021/12/24 04:14:34;;;;;;;79.82;19.15;;;7.80;99.90;;;;;;5007793;28;20121;-76
2021/12/24 04:16:59;;;;;;;83.18;20.17;;;7.80;99.90;;;;;;5008562;28;20503;-74
2021/12/24 04:24:55;;;;;;;60.80;17.48;;;7.90;99.90;;;;;;4988164;28;19991;-76
2021/12/24 04:27:24;;;;;;;56.13;17.83;;;7.90;99.90;;;;;;5003985;28;20049;-76
2021/12/24 04:29:52;;;;;;;53.72;17.50;;;8.00;99.90;;;;;;5005144;28;20049;-74
2021/12/24 04:32:23;;;;;;;54.55;17.45;;;8.00;99.90;;;;;;5004963;28;20045;-74
2021/12/24 04:34:51;;;;;;;59.00;18.52;;;7.90;99.90;;;;;;5013576;28;20103;-76
2021/12/24 04:51:20;;;;;;;;;;;8.10;99.90;;;;;;4997043;28;20407;-76
2021/12/24 05:04:46;;;;;;;56.50;22.67;;;8.10;99.90;;;;;;5009690;28;19918;-75
2021/12/24 05:09:56;;;;;;;62.40;21.73;;;8.10;99.90;;;;;;5003027;28;20095;-75
2021/12/24 05:12:22;;;;;;;62.05;22.42;;;8.10;99.90;;;;;;4996828;28;20041;-76
2021/12/24 05:14:47;;;;;;;56.05;22.05;;;8.10;99.90;;;;;;5006843;28;20067;-76
2021/12/24 05:17:30;;;;;;;59.58;23.42;;;8.10;99.90;;;;;;5011455;28;20448;-76
2021/12/24 05:22:40;;;;;;;60.92;23.80;;;8.10;99.90;;;;;;5011841;28;20137;-76
2021/12/24 05:25:05;;;;;;;60.88;25.08;;;8.10;99.90;;;;;;5003020;28;20077;-75
2021/12/24 05:27:31;;;;;;;61.72;26.08;;;8.10;99.90;;;;;;5008919;28;20537;-76
2021/12/24 05:29:57;;;;;;;65.28;25.92;;;8.10;99.90;;;;;;5012512;28;20419;-75
2021/12/24 05:32:22;;;;;;;67.18;26.45;;;8.10;99.90;;;;;;5012025;28;20049;-76
2021/12/24 05:34:48;;;;;;;77.28;27.80;;;8.10;99.90;;;;;;5011973;28;20100;-75
2021/12/24 05:37:13;;;;;;;77.40;29.98;;;8.10;99.90;;;;;;5011857;28;20045;-76
2021/12/24 05:39:39;;;;;;;76.85;29.10;;;8.20;99.90;;;;;;5011529;28;20125;-77
2021/12/24 05:42:05;;;;;;;65.05;25.17;;;8.20;99.90;;;;;;4993122;28;20059;-75
2021/12/24 05:44:32;;;;;;;61.10;25.35;;;8.20;99.90;;;;;;4985257;28;20042;-75
2021/12/24 05:46:59;;;;;;;60.80;23.63;;;8.20;99.90;;;;;;5002105;28;20093;-76
2021/12/24 05:49:25;;;;;;;69.57;26.48;;;8.10;99.90;;;;;;5008974;28;20196;-76
2021/12/24 05:51:50;;;;;;;57.65;24.45;;;8.10;99.90;;;;;;5012586;28;20566;-75
2021/12/24 05:54:16;;;;;;;57.38;22.80;;;8.10;99.90;;;;;;5011292;28;20187;-77
2021/12/24 05:56:42;;;;;;;56.60;24.15;;;8.10;99.90;;;;;;5011899;28;20052;-75
2021/12/24 05:59:08;;;;;;;60.53;23.13;;;8.10;99.90;;;;;;5011235;28;20499;-75
2021/12/24 06:01:34;;;;;;;51.08;21.80;;;8.20;99.90;;;;;;4994595;28;20054;-75
2021/12/24 06:04:00;;;;;;;59.80;22.00;;;8.10;99.90;;;;;;5010913;28;20060;-76
2021/12/24 06:06:25;;;;;;;49.63;19.92;;;8.10;99.90;;;;;;5009110;28;20038;-75
2021/12/24 06:08:51;;;;;;;54.47;20.33;;;8.10;99.90;;;;;;5018925;28;20034;-76
2021/12/24 06:11:17;;;;;;;57.60;20.02;;;8.10;99.90;;;;;;5007106;28;20553;-76
2021/12/24 06:13:42;;;;;;;53.30;20.00;;;8.10;99.90;;;;;;5007461;28;20068;-76
2021/12/24 06:16:09;;;;;;;49.92;18.10;;;8.10;99.90;;;;;;4994004;28;20137;-76
2021/12/24 06:18:38;;;;;;;48.03;18.77;;;8.10;99.90;;;;;;5011781;28;20092;-76
2021/12/24 06:21:04;;;;;;;47.53;19.08;;;8.10;99.90;;;;;;5011465;28;20042;-76
2021/12/24 06:23:31;;;;;;;46.95;16.67;;;8.10;99.90;;;;;;5011761;28;20121;-75
2021/12/24 06:25:59;;;;;;;47.17;16.25;;;8.10;99.90;;;;;;4994667;28;20033;-76
2021/12/24 06:28:25;;;;;;;52.22;18.02;;;8.20;99.90;;;;;;4995036;28;20060;-76
2021/12/24 06:30:53;;;;;;;38.53;15.10;;;8.10;99.90;;;;;;4994919;28;20034;-76
2021/12/24 06:33:19;;;;;;;49.55;16.75;;;8.20;99.90;;;;;;5008040;28;20050;-76
2021/12/24 06:35:45;;;;;;;40.75;14.55;;;8.20;99.90;;;;;;5011189;28;20045;-76
2021/12/24 06:38:11;;;;;;;44.83;14.02;;;8.20;99.90;;;;;;5007783;28;20462;-76
2021/12/24 06:40:36;;;;;;;38.45;13.80;;;8.20;99.90;;;;;;5009774;28;20439;-76
2021/12/24 06:43:03;;;;;;;38.58;14.25;;;8.20;99.90;;;;;;4995015;28;20073;-74
2021/12/24 06:45:29;;;;;;;35.25;13.75;;;8.20;99.90;;;;;;5003737;28;20034;-75
2021/12/24 06:47:57;;;;;;;37.33;13.02;;;8.20;99.90;;;;;;5007458;28;20049;-76
2021/12/24 06:50:24;;;;;;;35.13;13.82;;;8.20;99.90;;;;;;4994040;28;20038;-76
2021/12/24 06:52:51;;;;;;;38.22;15.20;;;8.20;99.90;;;;;;5007476;28;20072;-73
2021/12/24 06:55:17;;;;;;;43.90;14.70;;;8.20;99.90;;;;;;4991548;28;20522;-74
2021/12/24 06:57:44;;;;;;;40.60;14.32;;;8.20;99.90;;;;;;5003483;28;20076;-76
2021/12/24 07:00:19;;;;;;;35.85;14.27;;;8.10;99.90;;;;;;4994662;28;20040;-76
2021/12/24 07:02:45;;;;;;;38.20;13.70;;;8.10;99.90;;;;;;4993468;28;20038;-74
2021/12/24 07:05:11;;;;;;;35.05;14.10;;;8.10;99.90;;;;;;4993508;28;20042;-75
2021/12/24 07:07:36;;;;;;;41.92;13.45;;;8.10;99.90;;;;;;4997664;28;20044;-76
2021/12/24 07:10:04;;;;;;;37.05;12.52;;;8.10;99.90;;;;;;5011386;28;20509;-76
2021/12/24 07:12:30;;;;;;;30.40;12.82;;;8.10;99.90;;;;;;5010568;28;20042;-76
2021/12/24 07:14:56;;;;;;;27.27;11.02;;;8.00;99.90;;;;;;5010370;28;20125;-77
2021/12/24 07:17:21;;;;;;;29.05;11.25;;;8.10;99.90;;;;;;5002982;28;20129;-74
2021/12/24 07:19:47;;;;;;;26.92;12.05;;;8.00;99.90;;;;;;5010426;28;20120;-75
2021/12/24 07:22:14;;;;;;;22.00;10.38;;;8.00;99.90;;;;;;5009050;28;20049;-76
2021/12/24 07:24:39;;;;;;;27.58;10.98;;;8.00;99.90;;;;;;5007732;28;20491;-75
2021/12/24 07:27:05;;;;;;;26.00;11.48;;;8.00;99.90;;;;;;5010157;28;20052;-76
2021/12/24 07:29:31;;;;;;;19.85;9.88;;;8.00;99.90;;;;;;5006039;28;20049;-76
2021/12/24 07:31:57;;;;;;;21.17;9.70;;;8.00;99.90;;;;;;5011244;28;20044;-76
2021/12/24 07:34:23;;;;;;;27.55;10.15;;;8.00;99.90;;;;;;5009572;28;20042;-79
2021/12/24 07:36:50;;;;;;;27.80;9.73;;;8.00;99.90;;;;;;5010497;28;20042;-77
2021/12/24 07:39:16;;;;;;;27.17;9.88;;;7.90;99.90;;;;;;4999429;28;20065;-77
2021/12/24 07:41:42;;;;;;;26.58;9.48;;;8.00;99.90;;;;;;5010432;28;20066;-77
2021/12/24 07:44:08;;;;;;;22.95;8.98;;;7.90;99.90;;;;;;5010056;28;20042;-77
2021/12/24 07:46:44;;;;;;;24.40;10.07;;;8.00;99.90;;;;;;5002844;28;20038;-77
2021/12/24 07:52:23;;;;;;;20.70;8.20;;;7.90;99.90;;;;;;5005046;28;20483;-78
2021/12/24 07:54:44;;;;;;;20.88;8.70;;;7.90;99.90;;;;;;5003633;28;20105;-77
2021/12/24 07:57:12;;;;;;;23.13;9.20;;;7.90;99.90;;;;;;5006749;28;20447;-77
2021/12/24 07:59:39;;;;;;;29.58;9.95;;;7.90;99.90;;;;;;5004078;28;20492;-77
2021/12/24 08:02:11;;;;;;;26.15;9.57;;;7.90;99.90;;;;;;4986341;28;20034;-79
2021/12/24 08:04:38;;;;;;;29.23;9.95;;;7.90;99.90;;;;;;5003459;28;20042;-78
2021/12/24 08:07:05;;;;;;;27.10;8.82;;;7.90;99.90;;;;;;5013757;28;20387;-78
2021/12/24 08:09:30;;;;;;;21.40;9.43;;;7.90;99.90;;;;;;5011711;28;20119;-78
2021/12/24 08:11:56;;;;;;;24.98;8.95;;;7.90;99.90;;;;;;5009221;28;20692;-79
2021/12/24 08:14:22;;;;;;;33.35;9.95;;;7.90;99.90;;;;;;5008477;28;20495;-79
2021/12/24 08:16:47;;;;;;;25.88;9.50;;;7.90;99.90;;;;;;5016478;28;20045;-79
2021/12/24 08:19:16;;;;;;;25.60;10.05;;;7.90;99.90;;;;;;5018984;28;20502;-78
2021/12/24 08:21:42;;;;;;;26.88;9.77;;;7.90;99.90;;;;;;5017691;28;20120;-78
2021/12/24 08:24:08;;;;;;;28.92;9.50;;;7.90;99.90;;;;;;5016905;28;20060;-79
2021/12/24 08:26:34;;;;;;;26.25;10.07;;;7.90;99.90;;;;;;5017325;28;20049;-80
2021/12/24 08:28:59;;;;;;;27.83;10.25;;;7.90;99.90;;;;;;5017533;28;20137;-78
2021/12/24 08:31:25;;;;;;;25.33;8.65;;;7.90;99.90;;;;;;5017701;28;20073;-79
2021/12/24 08:33:50;;;;;;;26.75;10.73;;;7.90;99.90;;;;;;5017351;28;20431;-78
2021/12/24 08:36:16;;;;;;;25.45;10.38;;;7.90;99.90;;;;;;5000833;28;20047;-78
2021/12/24 08:38:42;;;;;;;31.10;10.50;;;7.90;99.90;;;;;;5000343;28;20129;-79
2021/12/24 08:41:07;;;;;;;24.60;10.05;;;7.90;99.90;;;;;;4989058;28;20050;-77
2021/12/24 08:43:33;;;;;;;25.40;9.32;;;7.90;99.90;;;;;;5013886;28;20044;-79
2021/12/24 08:45:59;;;;;;;22.77;9.10;;;7.90;99.90;;;;;;5007627;28;20163;-79
2021/12/24 08:48:25;;;;;;;25.25;9.13;;;7.90;99.90;;;;;;5014970;28;20125;-78
2021/12/24 08:50:51;;;;;;;19.85;9.32;;;7.80;99.90;;;;;;4999221;28;20211;-78
2021/12/24 08:53:16;;;;;;;23.85;8.68;;;7.90;99.90;;;;;;5016810;28;20037;-78
2021/12/24 08:55:42;;;;;;;22.23;8.27;;;7.90;99.90;;;;;;5014946;28;20041;-78
2021/12/24 08:58:08;;;;;;;25.52;8.88;;;7.90;99.90;;;;;;4998424;28;20052;-79
2021/12/24 09:00:35;;;;;;;26.50;9.82;;;7.90;99.90;;;;;;5015286;28;20140;-78
2021/12/24 09:03:02;;;;;;;18.92;7.72;;;7.90;99.90;;;;;;5016676;28;20117;-79
2021/12/24 09:05:29;;;;;;;19.05;8.60;;;7.90;99.90;;;;;;4999394;28;20034;-79
2021/12/24 09:07:54;;;;;;;17.75;8.23;;;7.80;99.90;;;;;;5012908;28;20098;-77
2021/12/24 09:10:20;;;;;;;29.58;8.85;;;7.90;99.90;;;;;;4995094;28;20041;-78
2021/12/24 09:12:46;;;;;;;17.15;7.18;;;7.90;99.90;;;;;;5012577;28;20496;-78
2021/12/24 09:15:15;;;;;;;19.60;7.75;;;7.80;99.90;;;;;;5010133;28;20057;-77
2021/12/24 09:17:46;;;;;;;19.52;7.20;;;7.80;99.90;;;;;;5011726;28;20038;-78
2021/12/24 09:20:15;;;;;;;14.35;7.20;;;7.90;99.90;;;;;;5011980;28;20455;-78
2021/12/24 09:22:41;;;;;;;18.45;7.00;;;7.80;99.90;;;;;;5009385;28;20429;-77
2021/12/24 09:25:08;;;;;;;15.75;6.60;;;7.90;99.90;;;;;;5010909;28;20113;-78
2021/12/24 09:27:34;;;;;;;16.65;7.57;;;7.80;99.90;;;;;;5010494;28;20069;-78
2021/12/24 09:30:00;;;;;;;17.02;7.57;;;7.80;99.90;;;;;;5012265;28;20522;-78
2021/12/24 09:32:28;;;;;;;18.67;8.18;;;7.80;99.90;;;;;;5008009;28;21198;-78
2021/12/24 09:34:54;;;;;;;16.02;7.40;;;7.70;99.90;;;;;;5012416;28;20045;-78
2021/12/24 09:37:20;;;;;;;18.42;7.60;;;7.80;99.90;;;;;;5008392;28;20056;-78
2021/12/24 09:39:46;;;;;;;14.35;7.60;;;7.80;99.90;;;;;;5011068;28;20403;-77
2021/12/24 09:42:11;;;;;;;12.30;6.53;;;7.80;99.90;;;;;;5010697;28;20034;-76
2021/12/24 09:44:37;;;;;;;16.73;7.28;;;7.80;99.90;;;;;;4992145;28;20035;-78
2021/12/24 09:47:03;;;;;;;15.82;6.82;;;7.80;99.90;;;;;;4991694;28;20042;-78
2021/12/24 09:49:28;;;;;;;13.02;6.22;;;7.80;99.90;;;;;;5008255;28;20104;-78
2021/12/24 09:51:54;;;;;;;14.45;6.53;;;7.80;99.90;;;;;;5008289;28;20659;-78
2021/12/24 09:54:23;;;;;;;9.82;5.15;;;7.80;99.90;;;;;;5007352;28;20125;-77
2021/12/24 09:56:50;;;;;;;11.02;4.88;;;7.80;99.90;;;;;;5008884;28;20042;-77
2021/12/24 09:59:16;;;;;;;12.43;5.47;;;7.70;99.90;;;;;;5008165;28;20087;-77
2021/12/24 10:01:50;;;;;;;6.00;2.90;;;7.70;99.90;;;;;;5007745;28;20116;-78
2021/12/24 10:04:18;;;;;;;3.95;3.00;;;7.30;99.90;;;;;;5007813;28;20113;-78
2021/12/24 10:06:59;;;;;;;5.70;2.70;;;7.10;99.90;;;;;;5008301;28;20064;-77
2021/12/24 10:09:34;;;;;;;3.25;2.42;;;7.00;99.90;;;;;;5006847;28;20039;-78
2021/12/24 10:12:03;;;;;;;4.05;2.38;;;6.90;99.90;;;;;;5007421;28;20038;-77
2021/12/24 10:14:42;;;;;;;3.70;2.00;;;6.80;99.90;;;;;;5007614;28;20069;-78
2021/12/24 10:17:26;;;;;;;3.35;2.13;;;6.80;99.90;;;;;;5006747;28;20128;-78
2021/12/24 10:19:53;;;;;;;;;;;6.70;99.90;;;;;;5006775;28;20069;-77
2021/12/24 10:22:21;;;;;;;4.50;2.58;;;6.60;99.90;;;;;;4994848;28;19925;-77
2021/12/24 10:25:08;;;;;;;3.42;2.58;;;6.60;99.90;;;;;;5009776;28;20046;-77
2021/12/24 10:27:34;;;;;;;4.07;3.03;;;6.60;99.90;;;;;;5009847;28;20121;-77
2021/12/24 10:30:22;;;;;;;4.72;3.08;;;6.50;99.90;;;;;;5007341;28;20042;-78
2021/12/24 10:32:49;;;;;;;5.22;3.13;;;6.50;99.90;;;;;;4988748;28;20050;-77
2021/12/24 10:35:26;;;;;;;4.65;3.38;;;6.60;99.90;;;;;;5006027;28;20076;-77
2021/12/24 10:38:12;;;;;;;4.35;3.47;;;6.50;99.90;;;;;;5006801;28;20133;-77
2021/12/24 10:40:57;;;;;;;5.45;3.70;;;6.50;99.90;;;;;;4989066;28;20038;-77
2021/12/24 10:43:29;;;;;;;4.68;3.35;;;6.50;99.90;;;;;;5007614;28;20053;-77
2021/12/24 10:46:23;;;;;;;6.05;3.70;;;6.50;99.90;;;;;;4990203;28;20049;-77
2021/12/24 10:49:08;;;;;;;5.28;3.35;;;6.50;99.90;;;;;;4996551;28;20165;-76
2021/12/24 10:52:11;;;;;;;5.63;3.17;;;6.50;99.90;;;;;;5009787;28;20067;-76
2021/12/24 10:54:52;;;;;;;6.82;4.00;;;6.60;99.90;;;;;;5007777;28;20435;-77
2021/12/24 10:57:20;;;;;;;4.60;3.20;;;6.50;99.90;;;;;;5007036;28;20050;-78
2021/12/24 10:59:50;;;;;;;4.43;3.17;;;6.50;99.90;;;;;;5007634;28;20125;-77
2021/12/24 11:02:17;;;;;;;4.63;3.30;;;6.50;99.90;;;;;;5010635;28;20305;-77
2021/12/24 11:04:43;;;;;;;3.92;2.92;;;6.50;99.90;;;;;;5008565;28;20513;-78
2021/12/24 11:07:33;;;;;;;6.65;3.08;;;6.50;99.90;;;;;;5008355;28;20049;-78
2021/12/24 11:10:13;;;;;;;4.22;3.10;;;6.50;99.90;;;;;;5003092;28;20096;-77
2021/12/24 11:12:45;;;;;;;4.53;3.10;;;6.50;99.90;;;;;;5005192;28;20041;-77
2021/12/24 11:15:21;;;;;;;3.85;2.70;;;6.40;99.90;;;;;;4985418;28;20042;-77
2021/12/24 11:17:47;;;;;;;4.25;3.15;;;6.50;99.90;;;;;;5002147;28;20075;-77
2021/12/24 11:20:13;;;;;;;3.60;2.60;;;6.40;99.90;;;;;;5011051;28;20100;-77
2021/12/24 11:23:15;;;;;;;3.50;2.60;;;6.40;99.90;;;;;;5010897;28;20499;-77
2021/12/24 11:25:46;;;;;;;4.13;2.70;;;6.40;99.90;;;;;;5007226;28;20108;-75
2021/12/24 11:28:13;;;;;;;3.33;2.55;;;6.40;99.90;;;;;;5011152;28;20033;-77
2021/12/24 11:30:43;;;;;;;4.32;2.80;;;6.40;99.90;;;;;;5010980;28;20038;-77
2021/12/24 11:33:15;;;;;;;3.55;2.70;;;6.40;99.90;;;;;;5010673;28;20045;-77
2021/12/24 11:35:41;;;;;;;5.07;3.13;;;6.40;99.90;;;;;;5009735;28;20046;-78
2021/12/24 11:38:07;;;;;;;4.63;2.63;;;6.40;99.90;;;;;;5009127;28;20193;-77
2021/12/24 11:40:33;;;;;;;4.75;3.05;;;6.40;99.90;;;;;;5010506;28;20120;-77
2021/12/24 11:43:05;;;;;;;4.95;2.72;;;6.40;99.90;;;;;;5010580;28;20080;-77
2021/12/24 11:45:35;;;;;;;4.47;2.90;;;6.40;99.90;;;;;;5010158;28;20092;-77
2021/12/24 11:48:02;;;;;;;6.57;3.00;;;6.40;99.90;;;;;;4994337;28;20451;-76
2021/12/24 11:50:31;;;;;;;4.93;2.83;;;6.40;99.90;;;;;;5010261;28;20042;-77
2021/12/24 11:52:59;;;;;;;3.03;2.38;;;6.30;99.90;;;;;;5010139;28;20077;-77
2021/12/24 11:55:27;;;;;;;4.15;2.88;;;6.20;99.90;;;;;;5010468;28;20034;-77
2021/12/24 11:57:59;;;;;;;4.95;2.83;;;6.10;99.90;;;;;;5011859;28;20061;-78
2021/12/24 12:00:36;;;;;;;4.75;2.65;;;6.10;99.90;;;;;;5010369;28;20050;-77
2021/12/24 12:03:02;;;;;;;3.65;2.80;;;6.00;99.90;;;;;;5010590;28;20434;-78
2021/12/24 12:05:32;;;;;;;4.30;2.92;;;6.00;99.90;;;;;;5010057;28;20050;-77
2021/12/24 12:08:23;;;;;;;5.45;2.80;;;6.00;99.90;;;;;;4994119;28;20133;-76
2021/12/24 12:10:53;;;;;;;3.50;2.78;;;5.90;99.90;;;;;;5010270;28;20116;-77
2021/12/24 12:13:42;;;;;;;3.85;2.65;;;5.90;99.90;;;;;;5010266;28;20038;-77
2021/12/24 12:16:10;;;;;;;3.97;2.90;;;5.80;99.90;;;;;;4990954;28;20034;-77
2021/12/24 12:18:46;;;;;;;3.88;3.03;;;5.80;99.90;;;;;;5004686;28;20065;-78
2021/12/24 12:21:20;;;;;;;3.95;3.10;;;5.80;99.90;;;;;;5004751;28;20038;-77
2021/12/24 12:26:47;;;;;;;3.45;2.83;;;5.80;99.90;;;;;;4988986;28;19918;-77
2021/12/24 12:29:18;;;;;;;7.03;3.67;;;5.80;99.90;;;;;;5004914;28;20038;-77
2021/12/24 12:31:44;;;;;;;6.38;3.40;;;5.80;99.90;;;;;;5005585;28;20048;-78
2021/12/24 12:34:44;;;;;;;4.72;3.10;;;5.80;99.90;;;;;;4989248;28;20030;-77
2021/12/24 12:37:26;;;;;;;6.72;3.45;;;5.80;99.90;;;;;;4989755;28;20053;-76
2021/12/24 12:39:53;;;;;;;4.15;3.30;;;5.80;99.90;;;;;;5006162;28;20034;-77
2021/12/24 12:42:20;;;;;;;6.40;3.80;;;5.80;99.90;;;;;;5008065;28;20073;-77
2021/12/24 12:44:53;;;;;;;4.75;3.70;;;5.70;99.90;;;;;;5009826;28;20443;-77
2021/12/24 12:47:22;;;;;;;4.15;3.60;;;5.80;99.90;;;;;;5002401;28;20053;-77
2021/12/24 12:49:48;;;;;;;5.53;3.78;;;5.80;99.90;;;;;;5008273;28;20061;-77
2021/12/24 12:52:32;;;;;;;5.70;3.80;;;5.80;99.90;;;;;;5011721;28;20068;-77
2021/12/24 12:54:58;;;;;;;4.88;3.92;;;5.80;99.90;;;;;;5002986;28;20049;-77
2021/12/24 12:57:36;;;;;;;5.95;3.95;;;5.90;99.90;;;;;;5012485;28;20046;-77
2021/12/24 13:00:07;;;;;;;4.95;3.65;;;5.90;99.90;;;;;;4993808;28;20054;-77
2021/12/24 13:03:01;;;;;;;5.15;4.07;;;5.90;99.90;;;;;;4993829;28;20046;-78
2021/12/24 13:05:29;;;;;;;8.68;4.32;;;6.00;99.90;;;;;;4998542;28;20050;-77
2021/12/24 13:07:59;;;;;;;8.25;4.88;;;6.00;99.90;;;;;;4997381;28;20036;-77
2021/12/24 13:10:26;;;;;;;6.10;4.22;;;6.00;99.90;;;;;;4993363;28;20038;-77
2021/12/24 13:12:59;;;;;;;6.30;4.60;;;6.00;99.90;;;;;;5011523;28;20030;-76
2021/12/24 13:15:25;;;;;;;6.68;4.57;;;6.00;99.90;;;;;;5010700;28;20046;-77
2021/12/24 13:17:51;;;;;;;5.85;4.30;;;6.00;99.90;;;;;;5008720;28;20087;-77
2021/12/24 13:20:30;;;;;;;5.93;4.35;;;6.00;99.90;;;;;;4975363;28;20042;-77
2021/12/24 13:22:56;;;;;;;6.53;4.60;;;6.10;99.90;;;;;;4991636;28;20038;-76
2021/12/24 13:25:22;;;;;;;6.07;4.57;;;6.00;99.90;;;;;;4975499;28;20049;-77
2021/12/24 13:27:53;;;;;;;7.03;4.72;;;6.10;99.90;;;;;;4988797;28;20439;-76
2021/12/24 13:30:18;;;;;;;6.88;5.30;;;6.10;99.90;;;;;;5012937;28;20049;-77
2021/12/24 13:32:53;;;;;;;7.20;5.10;;;6.20;99.90;;;;;;5012066;28;20534;-76
2021/12/24 13:35:36;;;;;;;7.85;4.85;;;6.30;99.90;;;;;;5011838;28;20500;-77
2021/12/24 13:38:01;;;;;;;7.95;5.10;;;6.20;99.90;;;;;;5012620;28;20152;-77
2021/12/24 13:40:32;;;;;;;6.53;4.88;;;6.30;99.90;;;;;;5010274;28;20531;-77
2021/12/24 13:43:07;;;;;;;5.65;4.57;;;6.30;99.90;;;;;;4997174;28;20039;-77
2021/12/24 13:45:36;;;;;;;7.38;4.85;;;6.20;99.90;;;;;;5008444;28;20042;-76
2021/12/24 13:48:15;;;;;;;6.13;4.70;;;6.20;99.90;;;;;;5010014;28;20050;-77
2021/12/24 13:56:48;;;;;;;6.85;4.72;;;6.10;99.90;;;;;;4998210;28;20046;-78
2021/12/24 13:59:19;;;;;;;7.53;4.95;;;6.10;99.90;;;;;;5006504;28;20092;-78
2021/12/24 14:01:45;;;;;;;7.00;4.90;;;6.10;99.90;;;;;;5012490;28;20056;-76
2021/12/24 14:04:15;;;;;;;6.10;4.80;;;6.10;99.90;;;;;;5003908;28;20038;-78
2021/12/24 14:06:44;;;;;;;7.40;4.55;;;6.00;99.90;;;;;;5010130;28;20095;-77
2021/12/24 14:09:13;;;;;;;8.70;5.25;;;6.00;99.90;;;;;;5009957;28;20038;-78
2021/12/24 14:11:39;;;;;;;5.72;4.55;;;6.00;99.90;;;;;;5001933;28;20077;-78
2021/12/24 14:14:11;;;;;;;6.28;4.07;;;6.00;99.90;;;;;;5007220;28;20038;-78
2021/12/24 14:16:55;;;;;;;5.82;4.47;;;6.00;99.90;;;;;;4999905;28;20056;-78
2021/12/24 14:19:34;;;;;;;7.97;4.57;;;6.00;99.90;;;;;;5005297;28;20068;-77
2021/12/24 14:22:14;;;;;;;6.13;4.47;;;6.00;99.90;;;;;;5001845;28;20450;-78
2021/12/24 14:24:55;;;;;;;7.00;3.90;;;6.00;99.90;;;;;;5005679;28;20042;-77
2021/12/24 14:27:28;;;;;;;8.40;4.10;;;6.00;99.90;;;;;;5007927;28;20026;-77
2021/12/24 14:29:56;;;;;;;5.90;4.03;;;6.00;99.90;;;;;;4999298;28;20380;-77
2021/12/24 14:32:35;;;;;;;7.68;3.78;;;6.00;99.90;;;;;;4994169;28;20048;-78
2021/12/24 14:35:14;;;;;;;5.72;3.55;;;5.90;99.90;;;;;;5005320;28;20945;-76
2021/12/24 14:37:42;;;;;;;8.60;3.67;;;5.90;99.90;;;;;;5005917;28;20046;-78
2021/12/24 14:40:08;;;;;;;6.95;3.78;;;5.90;99.90;;;;;;5008245;28;20500;-77
2021/12/24 14:42:36;;;;;;;5.78;2.90;;;5.90;99.90;;;;;;5000265;28;20048;-77
2021/12/24 14:45:25;;;;;;;4.30;2.08;;;5.80;99.90;;;;;;4991470;28;20042;-78